Arbor Hill, Iowa
Current Conditions -  °F | °C
As of 7:35 AM on Friday 24 Oct 2014 (Local Time) from KPRO Reporting Station
Haze Haze  
Wind Chill: 57°   Ceiling: 200
Heat Index: 57°   Visibility: 1.2mi
Dew Point: 57°   Wind: 10mph
Humidity: 99%   Direction: 180°S
Pressure: 29.94"   Gusts: NA
Location:  41.5397°N, 94.299°W
Report Text: KPRO 241235Z AUTO 18009KT 1 1/4SM BR OVC002 14/14 A2994 RMK AO2 T01410140
Loading
Personal Weather Stations






























Interactive Weather Map
Tropical Storm Tracking
New forecast layout! Learn more

10-Day Weather Forecast

Advertisements
Track Severe Weather on mobile